Airfield :
LOGIN :

Register | Disclaimer

   EN    FR    IT 

 










Legend :    VFR   Marginal VFR   IFR   Intensive IFR   Very Intensive IFR
Visi :
Ceiling :
>= 8 km
>= 3000ft
5 to 8 km
1000 to 3000 ft
1500m to 5 km
500 to 1000 ft
800 to 1500m
200 to 500 ft
< 800m
< 200 ft
Symbols :   Thunderstorms  Fog  Heavy snow  Heavy precipitations  Wind > 20 kt
SIGMETs :     Misc.  Thunderstorms  Icing  Turbulence  Mountain Waves  Volcanic Ashes






- Airport Elevation : 141 ft
- IATA code : TGD


LYPG - Podgorica - Montenegro

CURRENT METAR :
  • 081000Z 31005KT 5000 -RA BR FEW006 SCT023 BKN050 11/11 Q1013 RERA NOSIG

EXPIRED METARs :
  • 080930Z VRB02KT 6000 -RA FEW010 SCT023 OVC070 11/11 Q1014 NOSIG
  • 080900Z VRB01KT 8000 -RA FEW010 SCT023 OVC070 11/11 Q1014 TEMPO RA
  • 080830Z VRB01KT 9999 -RA FEW010 SCT023 OVC070 11/11 Q1014 NOSIG
  • 080800Z 00000KT 9999 -RA FEW010 SCT023 OVC070 11/11 Q1014 NOSIG
  • 080730Z 00000KT 9999 FEW010 SCT023 OVC070 11/11 Q1014 NOSIG

TAF TAF LYPG
Valid from the 08 at 06:00 until the 09 at 06:00 UTC


080500Z 0806/0906 14005KT 9999 FEW010 SCT030 BKN070 TX13/0813Z TN09/0906Z
TEMPO 0806/0817 3000 RA BR
PROB40
TEMPO 0810/0815 16015G25KT TSRA FEW030CB BKN040
BECMG 0817/0819 1500 BR
PROB40
TEMPO 0819/0823 0600 FG
TEMPO 0823/0906 3000 RA



MET'MAP, your aeronautical weather chart ! - Copyright ORBIFLY December 2007 - Disclaimer

ORBIFLY MET'MAP TEAM :

Programming & Development : Alexandra Zaïnal
Original concept : Baudouin d'Aumeries
Technical & hardware support : Manuel Goepfert
Assistance : Marc-Olivier Méhu




SOURCES & CREDITS :

   NOAA